sensor_id;sensor_type;location;lat;lon;timestamp;temperature;humidity
69626;DHT22;56847;51.984;5.088;2023-11-19T00:00:09;16.10;85.50
69626;DHT22;56847;51.984;5.088;2023-11-19T00:02:39;16.10;85.40
69626;DHT22;56847;51.984;5.088;2023-11-19T00:05:07;16.10;85.30
69626;DHT22;56847;51.984;5.088;2023-11-19T00:07:36;16.10;85.20
69626;DHT22;56847;51.984;5.088;2023-11-19T00:10:04;16.00;85.20
69626;DHT22;56847;51.984;5.088;2023-11-19T00:12:33;16.00;85.40
69626;DHT22;56847;51.984;5.088;2023-11-19T00:15:00;16.00;85.40
69626;DHT22;56847;51.984;5.088;2023-11-19T00:17:28;16.00;85.40
69626;DHT22;56847;51.984;5.088;2023-11-19T00:19:55;16.00;85.40
69626;DHT22;56847;51.984;5.088;2023-11-19T00:22:22;16.00;85.40
69626;DHT22;56847;51.984;5.088;2023-11-19T00:24:49;16.00;85.60
69626;DHT22;56847;51.984;5.088;2023-11-19T00:27:16;16.00;85.50
69626;DHT22;56847;51.984;5.088;2023-11-19T00:29:44;16.00;85.60
69626;DHT22;56847;51.984;5.088;2023-11-19T00:32:11;16.00;85.60
69626;DHT22;56847;51.984;5.088;2023-11-19T00:34:39;16.00;85.60
69626;DHT22;56847;51.984;5.088;2023-11-19T00:37:05;16.00;85.40
69626;DHT22;56847;51.984;5.088;2023-11-19T00:39:33;16.10;85.50
69626;DHT22;56847;51.984;5.088;2023-11-19T00:42:00;16.10;85.50
69626;DHT22;56847;51.984;5.088;2023-11-19T00:44:27;16.10;85.40
69626;DHT22;56847;51.984;5.088;2023-11-19T00:46:54;16.10;85.20
69626;DHT22;56847;51.984;5.088;2023-11-19T00:49:21;16.10;85.20
69626;DHT22;56847;51.984;5.088;2023-11-19T00:51:48;16.10;85.30
69626;DHT22;56847;51.984;5.088;2023-11-19T00:54:16;16.10;85.10
69626;DHT22;56847;51.984;5.088;2023-11-19T00:56:43;16.10;85.20
69626;DHT22;56847;51.984;5.088;2023-11-19T00:59:10;16.10;84.90
69626;DHT22;56847;51.984;5.088;2023-11-19T01:01:37;16.00;84.90
69626;DHT22;56847;51.984;5.088;2023-11-19T01:04:04;16.00;85.10
69626;DHT22;56847;51.984;5.088;2023-11-19T01:06:31;16.10;85.10
69626;DHT22;56847;51.984;5.088;2023-11-19T01:08:59;16.10;84.90
69626;DHT22;56847;51.984;5.088;2023-11-19T01:11:26;16.10;84.80
69626;DHT22;56847;51.984;5.088;2023-11-19T01:13:53;16.10;84.90
69626;DHT22;56847;51.984;5.088;2023-11-19T01:16:20;16.10;84.80
69626;DHT22;56847;51.984;5.088;2023-11-19T01:18:47;16.10;84.70
69626;DHT22;56847;51.984;5.088;2023-11-19T01:21:15;16.10;84.80
69626;DHT22;56847;51.984;5.088;2023-11-19T01:23:42;16.00;84.70
69626;DHT22;56847;51.984;5.088;2023-11-19T01:26:10;16.10;84.70
69626;DHT22;56847;51.984;5.088;2023-11-19T01:28:39;16.10;84.60
69626;DHT22;56847;51.984;5.088;2023-11-19T01:31:17;16.10;84.40
69626;DHT22;56847;51.984;5.088;2023-11-19T01:33:44;16.00;84.20
69626;DHT22;56847;51.984;5.088;2023-11-19T01:36:13;15.90;84.10
69626;DHT22;56847;51.984;5.088;2023-11-19T01:38:41;15.90;83.80
69626;DHT22;56847;51.984;5.088;2023-11-19T01:41:08;15.80;84.00
69626;DHT22;56847;51.984;5.088;2023-11-19T01:43:36;15.80;84.10
69626;DHT22;56847;51.984;5.088;2023-11-19T01:46:05;15.70;84.00
69626;DHT22;56847;51.984;5.088;2023-11-19T01:48:34;15.70;83.90
69626;DHT22;56847;51.984;5.088;2023-11-19T01:51:06;15.60;84.00
69626;DHT22;56847;51.984;5.088;2023-11-19T01:53:35;15.60;84.00
69626;DHT22;56847;51.984;5.088;2023-11-19T01:56:03;15.50;83.80
69626;DHT22;56847;51.984;5.088;2023-11-19T01:58:31;15.50;84.00
69626;DHT22;56847;51.984;5.088;2023-11-19T02:00:58;15.40;83.90
69626;DHT22;56847;51.984;5.088;2023-11-19T02:03:25;15.40;84.00
69626;DHT22;56847;51.984;5.088;2023-11-19T02:05:56;15.30;83.90
69626;DHT22;56847;51.984;5.088;2023-11-19T02:08:23;15.30;84.00
69626;DHT22;56847;51.984;5.088;2023-11-19T02:10:49;15.20;84.00
69626;DHT22;56847;51.984;5.088;2023-11-19T02:13:18;15.20;84.00
69626;DHT22;56847;51.984;5.088;2023-11-19T02:15:45;15.10;84.00
69626;DHT22;56847;51.984;5.088;2023-11-19T02:18:20;15.10;84.00
69626;DHT22;56847;51.984;5.088;2023-11-19T02:20:49;15.10;84.00
69626;DHT22;56847;51.984;5.088;2023-11-19T02:23:18;15.00;84.00
69626;DHT22;56847;51.984;5.088;2023-11-19T02:28:22;15.00;84.00
69626;DHT22;56847;51.984;5.088;2023-11-19T02:30:49;14.90;84.00
69626;DHT22;56847;51.984;5.088;2023-11-19T02:33:16;14.90;83.90
69626;DHT22;56847;51.984;5.088;2023-11-19T02:35:43;14.90;84.10
69626;DHT22;56847;51.984;5.088;2023-11-19T02:38:10;14.90;84.00
69626;DHT22;56847;51.984;5.088;2023-11-19T02:40:37;14.90;84.10
69626;DHT22;56847;51.984;5.088;2023-11-19T02:43:05;14.80;84.00
69626;DHT22;56847;51.984;5.088;2023-11-19T02:45:32;14.80;84.00
69626;DHT22;56847;51.984;5.088;2023-11-19T02:47:59;14.80;84.00
69626;DHT22;56847;51.984;5.088;2023-11-19T02:50:28;14.80;84.00
69626;DHT22;56847;51.984;5.088;2023-11-19T02:52:56;14.80;84.00
69626;DHT22;56847;51.984;5.088;2023-11-19T02:55:25;14.70;83.90
69626;DHT22;56847;51.984;5.088;2023-11-19T02:57:54;14.70;84.00
69626;DHT22;56847;51.984;5.088;2023-11-19T03:00:23;14.70;84.00
69626;DHT22;56847;51.984;5.088;2023-11-19T03:02:51;14.70;84.00
69626;DHT22;56847;51.984;5.088;2023-11-19T03:05:27;14.60;84.00
69626;DHT22;56847;51.984;5.088;2023-11-19T03:07:57;14.60;84.00
69626;DHT22;56847;51.984;5.088;2023-11-19T03:10:24;14.60;84.00
69626;DHT22;56847;51.984;5.088;2023-11-19T03:12:51;14.60;84.00
69626;DHT22;56847;51.984;5.088;2023-11-19T03:15:18;14.60;83.90
69626;DHT22;56847;51.984;5.088;2023-11-19T03:17:45;14.50;83.90
69626;DHT22;56847;51.984;5.088;2023-11-19T03:20:12;14.50;83.90
69626;DHT22;56847;51.984;5.088;2023-11-19T03:22:44;14.50;83.90
69626;DHT22;56847;51.984;5.088;2023-11-19T03:25:11;14.40;83.90
69626;DHT22;56847;51.984;5.088;2023-11-19T03:27:38;14.40;83.90
69626;DHT22;56847;51.984;5.088;2023-11-19T03:30:06;14.40;83.90
69626;DHT22;56847;51.984;5.088;2023-11-19T03:32:33;14.40;84.00
69626;DHT22;56847;51.984;5.088;2023-11-19T03:35:02;14.30;83.90
69626;DHT22;56847;51.984;5.088;2023-11-19T03:37:31;14.30;83.90
69626;DHT22;56847;51.984;5.088;2023-11-19T03:39:59;14.30;83.90
69626;DHT22;56847;51.984;5.088;2023-11-19T03:42:29;14.30;84.00
69626;DHT22;56847;51.984;5.088;2023-11-19T03:44:59;14.30;83.90
69626;DHT22;56847;51.984;5.088;2023-11-19T03:47:26;14.20;84.00
69626;DHT22;56847;51.984;5.088;2023-11-19T03:49:53;14.20;83.90
69626;DHT22;56847;51.984;5.088;2023-11-19T03:52:20;14.20;84.00
69626;DHT22;56847;51.984;5.088;2023-11-19T03:54:47;14.20;84.00
69626;DHT22;56847;51.984;5.088;2023-11-19T03:57:14;14.20;83.90
69626;DHT22;56847;51.984;5.088;2023-11-19T03:59:42;14.20;83.90
69626;DHT22;56847;51.984;5.088;2023-11-19T04:02:09;14.20;83.80
69626;DHT22;56847;51.984;5.088;2023-11-19T04:04:37;14.20;83.90
69626;DHT22;56847;51.984;5.088;2023-11-19T04:07:05;14.10;83.80
69626;DHT22;56847;51.984;5.088;2023-11-19T04:09:32;14.10;83.70
69626;DHT22;56847;51.984;5.088;2023-11-19T04:12:04;14.10;83.70
69626;DHT22;56847;51.984;5.088;2023-11-19T04:14:31;14.10;83.70
69626;DHT22;56847;51.984;5.088;2023-11-19T04:16:58;14.10;83.70
69626;DHT22;56847;51.984;5.088;2023-11-19T04:19:25;14.10;83.70
69626;DHT22;56847;51.984;5.088;2023-11-19T04:21:52;14.00;83.50
69626;DHT22;56847;51.984;5.088;2023-11-19T04:24:19;14.00;83.40
69626;DHT22;56847;51.984;5.088;2023-11-19T04:26:46;14.00;83.40
69626;DHT22;56847;51.984;5.088;2023-11-19T04:29:14;14.00;83.40
69626;DHT22;56847;51.984;5.088;2023-11-19T04:31:41;14.00;83.30
69626;DHT22;56847;51.984;5.088;2023-11-19T04:34:08;14.00;83.10
69626;DHT22;56847;51.984;5.088;2023-11-19T04:36:35;14.00;83.20
69626;DHT22;56847;51.984;5.088;2023-11-19T04:39:04;14.00;83.00
69626;DHT22;56847;51.984;5.088;2023-11-19T04:41:36;14.00;83.20
69626;DHT22;56847;51.984;5.088;2023-11-19T04:44:03;14.00;83.00
69626;DHT22;56847;51.984;5.088;2023-11-19T04:46:30;14.00;83.10
69626;DHT22;56847;51.984;5.088;2023-11-19T04:48:57;14.00;82.80
69626;DHT22;56847;51.984;5.088;2023-11-19T04:51:24;14.00;82.90
69626;DHT22;56847;51.984;5.088;2023-11-19T04:53:50;13.90;82.90
69626;DHT22;56847;51.984;5.088;2023-11-19T04:56:17;13.90;82.80
69626;DHT22;56847;51.984;5.088;2023-11-19T04:58:46;13.90;82.90
69626;DHT22;56847;51.984;5.088;2023-11-19T05:01:14;13.90;82.80
69626;DHT22;56847;51.984;5.088;2023-11-19T05:03:43;13.90;82.80
69626;DHT22;56847;51.984;5.088;2023-11-19T05:06:10;13.90;82.80
69626;DHT22;56847;51.984;5.088;2023-11-19T05:08:37;13.90;82.70
69626;DHT22;56847;51.984;5.088;2023-11-19T05:11:04;13.90;82.90
69626;DHT22;56847;51.984;5.088;2023-11-19T05:13:32;13.90;82.70
69626;DHT22;56847;51.984;5.088;2023-11-19T05:15:59;13.90;82.70
69626;DHT22;56847;51.984;5.088;2023-11-19T05:18:26;13.90;82.90
69626;DHT22;56847;51.984;5.088;2023-11-19T05:20:53;13.90;82.80
69626;DHT22;56847;51.984;5.088;2023-11-19T05:23:20;13.90;82.80
69626;DHT22;56847;51.984;5.088;2023-11-19T05:25:47;13.90;82.60
69626;DHT22;56847;51.984;5.088;2023-11-19T05:28:14;13.90;82.70
69626;DHT22;56847;51.984;5.088;2023-11-19T05:30:41;13.90;82.80
69626;DHT22;56847;51.984;5.088;2023-11-19T05:33:08;13.80;82.70
69626;DHT22;56847;51.984;5.088;2023-11-19T05:35:35;13.80;82.70
69626;DHT22;56847;51.984;5.088;2023-11-19T05:38:02;13.80;82.60
69626;DHT22;56847;51.984;5.088;2023-11-19T05:40:30;13.80;82.60
69626;DHT22;56847;51.984;5.088;2023-11-19T05:42:57;13.80;82.80
69626;DHT22;56847;51.984;5.088;2023-11-19T05:45:23;13.80;82.70
69626;DHT22;56847;51.984;5.088;2023-11-19T05:47:50;13.80;82.80
69626;DHT22;56847;51.984;5.088;2023-11-19T05:50:18;13.80;82.80
69626;DHT22;56847;51.984;5.088;2023-11-19T05:52:46;13.80;82.80
69626;DHT22;56847;51.984;5.088;2023-11-19T05:55:13;13.80;82.80
69626;DHT22;56847;51.984;5.088;2023-11-19T05:57:41;13.80;82.80
69626;DHT22;56847;51.984;5.088;2023-11-19T06:00:11;13.80;82.90
69626;DHT22;56847;51.984;5.088;2023-11-19T06:02:40;13.80;82.80
69626;DHT22;56847;51.984;5.088;2023-11-19T06:05:07;13.80;82.70
69626;DHT22;56847;51.984;5.088;2023-11-19T06:07:34;13.70;82.80
69626;DHT22;56847;51.984;5.088;2023-11-19T06:10:03;13.80;82.90
69626;DHT22;56847;51.984;5.088;2023-11-19T06:12:33;13.80;82.80
69626;DHT22;56847;51.984;5.088;2023-11-19T06:15:05;13.80;82.80
69626;DHT22;56847;51.984;5.088;2023-11-19T06:17:32;13.80;82.80
69626;DHT22;56847;51.984;5.088;2023-11-19T06:19:59;13.80;82.90
69626;DHT22;56847;51.984;5.088;2023-11-19T06:22:26;13.80;82.80
69626;DHT22;56847;51.984;5.088;2023-11-19T06:24:53;13.70;82.80
69626;DHT22;56847;51.984;5.088;2023-11-19T06:27:21;13.70;82.80
69626;DHT22;56847;51.984;5.088;2023-11-19T06:29:49;13.70;82.70
69626;DHT22;56847;51.984;5.088;2023-11-19T06:32:16;13.70;82.70
69626;DHT22;56847;51.984;5.088;2023-11-19T06:34:43;13.70;82.80
69626;DHT22;56847;51.984;5.088;2023-11-19T06:37:10;13.70;82.80
69626;DHT22;56847;51.984;5.088;2023-11-19T06:39:37;13.70;82.70
69626;DHT22;56847;51.984;5.088;2023-11-19T06:42:05;13.70;82.80
69626;DHT22;56847;51.984;5.088;2023-11-19T06:44:32;13.70;82.70
69626;DHT22;56847;51.984;5.088;2023-11-19T06:46:58;13.60;82.70
69626;DHT22;56847;51.984;5.088;2023-11-19T06:49:26;13.60;82.70
69626;DHT22;56847;51.984;5.088;2023-11-19T06:51:52;13.60;82.70
69626;DHT22;56847;51.984;5.088;2023-11-19T06:54:19;13.60;82.60
69626;DHT22;56847;51.984;5.088;2023-11-19T06:56:46;13.60;82.70
69626;DHT22;56847;51.984;5.088;2023-11-19T06:59:14;13.60;82.70
69626;DHT22;56847;51.984;5.088;2023-11-19T07:01:43;13.60;82.80
69626;DHT22;56847;51.984;5.088;2023-11-19T07:04:11;13.50;82.80
69626;DHT22;56847;51.984;5.088;2023-11-19T07:06:39;13.50;82.90
69626;DHT22;56847;51.984;5.088;2023-11-19T07:09:09;13.60;82.90
69626;DHT22;56847;51.984;5.088;2023-11-19T07:11:41;13.60;83.00
69626;DHT22;56847;51.984;5.088;2023-11-19T07:14:11;13.50;83.00
69626;DHT22;56847;51.984;5.088;2023-11-19T07:16:38;13.60;83.20
69626;DHT22;56847;51.984;5.088;2023-11-19T07:19:08;13.60;83.30
69626;DHT22;56847;51.984;5.088;2023-11-19T07:21:36;13.70;83.30
69626;DHT22;56847;51.984;5.088;2023-11-19T07:24:06;13.80;83.20
69626;DHT22;56847;51.984;5.088;2023-11-19T07:26:36;13.80;83.40
69626;DHT22;56847;51.984;5.088;2023-11-19T07:29:07;13.90;83.20
69626;DHT22;56847;51.984;5.088;2023-11-19T07:31:34;13.90;83.20
69626;DHT22;56847;51.984;5.088;2023-11-19T07:34:02;13.90;83.00
69626;DHT22;56847;51.984;5.088;2023-11-19T07:36:29;14.00;82.90
69626;DHT22;56847;51.984;5.088;2023-11-19T07:38:56;14.00;82.90
69626;DHT22;56847;51.984;5.088;2023-11-19T07:41:24;14.00;82.80
69626;DHT22;56847;51.984;5.088;2023-11-19T07:43:51;14.00;82.50
69626;DHT22;56847;51.984;5.088;2023-11-19T07:46:19;14.00;82.40
69626;DHT22;56847;51.984;5.088;2023-11-19T07:48:46;14.00;82.40
69626;DHT22;56847;51.984;5.088;2023-11-19T07:51:15;14.00;82.40
69626;DHT22;56847;51.984;5.088;2023-11-19T07:53:42;14.00;82.50
69626;DHT22;56847;51.984;5.088;2023-11-19T07:56:09;14.00;82.60
69626;DHT22;56847;51.984;5.088;2023-11-19T07:58:37;14.00;82.80
69626;DHT22;56847;51.984;5.088;2023-11-19T08:01:04;14.00;82.90
69626;DHT22;56847;51.984;5.088;2023-11-19T08:03:31;14.10;82.90
69626;DHT22;56847;51.984;5.088;2023-11-19T08:06:03;14.20;82.80
69626;DHT22;56847;51.984;5.088;2023-11-19T08:08:30;14.20;82.50
69626;DHT22;56847;51.984;5.088;2023-11-19T08:10:59;14.30;82.30
69626;DHT22;56847;51.984;5.088;2023-11-19T08:13:27;14.30;81.80
69626;DHT22;56847;51.984;5.088;2023-11-19T08:15:54;14.30;81.70
69626;DHT22;56847;51.984;5.088;2023-11-19T08:18:21;14.30;81.60
69626;DHT22;56847;51.984;5.088;2023-11-19T08:20:48;14.40;81.40
69626;DHT22;56847;51.984;5.088;2023-11-19T08:23:20;14.40;81.30
69626;DHT22;56847;51.984;5.088;2023-11-19T08:25:47;14.40;81.40
69626;DHT22;56847;51.984;5.088;2023-11-19T08:28:14;14.40;81.40
69626;DHT22;56847;51.984;5.088;2023-11-19T08:30:42;14.50;81.60
69626;DHT22;56847;51.984;5.088;2023-11-19T08:33:10;14.60;81.20
69626;DHT22;56847;51.984;5.088;2023-11-19T08:35:38;14.60;81.00
69626;DHT22;56847;51.984;5.088;2023-11-19T08:38:05;14.70;80.60
69626;DHT22;56847;51.984;5.088;2023-11-19T08:40:32;14.70;80.30
69626;DHT22;56847;51.984;5.088;2023-11-19T08:42:59;14.70;80.40
69626;DHT22;56847;51.984;5.088;2023-11-19T08:45:26;14.70;80.00
69626;DHT22;56847;51.984;5.088;2023-11-19T08:47:53;14.80;79.90
69626;DHT22;56847;51.984;5.088;2023-11-19T08:50:20;14.80;79.50
69626;DHT22;56847;51.984;5.088;2023-11-19T08:52:46;14.90;79.20
69626;DHT22;56847;51.984;5.088;2023-11-19T08:55:13;14.90;78.80
69626;DHT22;56847;51.984;5.088;2023-11-19T08:57:40;14.80;78.70
69626;DHT22;56847;51.984;5.088;2023-11-19T09:00:07;14.90;79.30
69626;DHT22;56847;51.984;5.088;2023-11-19T09:02:35;15.00;79.30
69626;DHT22;56847;51.984;5.088;2023-11-19T09:05:05;15.10;79.20
69626;DHT22;56847;51.984;5.088;2023-11-19T09:07:34;15.20;79.10
69626;DHT22;56847;51.984;5.088;2023-11-19T09:10:01;15.30;78.40
69626;DHT22;56847;51.984;5.088;2023-11-19T09:12:28;15.40;78.30
69626;DHT22;56847;51.984;5.088;2023-11-19T09:14:55;15.40;78.00
69626;DHT22;56847;51.984;5.088;2023-11-19T09:17:21;15.30;77.90
69626;DHT22;56847;51.984;5.088;2023-11-19T09:19:48;15.30;77.60
69626;DHT22;56847;51.984;5.088;2023-11-19T09:22:15;15.40;77.90
69626;DHT22;56847;51.984;5.088;2023-11-19T09:24:43;15.40;77.30
69626;DHT22;56847;51.984;5.088;2023-11-19T09:27:11;15.50;77.80
69626;DHT22;56847;51.984;5.088;2023-11-19T09:29:38;15.50;77.20
69626;DHT22;56847;51.984;5.088;2023-11-19T09:32:07;15.60;77.00
69626;DHT22;56847;51.984;5.088;2023-11-19T09:34:34;15.60;77.10
69626;DHT22;56847;51.984;5.088;2023-11-19T09:37:02;15.60;76.70
69626;DHT22;56847;51.984;5.088;2023-11-19T09:39:29;15.70;76.30
69626;DHT22;56847;51.984;5.088;2023-11-19T09:41:58;15.70;75.80
69626;DHT22;56847;51.984;5.088;2023-11-19T09:44:26;15.70;75.90
69626;DHT22;56847;51.984;5.088;2023-11-19T09:46:54;15.70;76.10
69626;DHT22;56847;51.984;5.088;2023-11-19T09:49:26;15.60;76.00
69626;DHT22;56847;51.984;5.088;2023-11-19T09:51:56;15.60;76.00
69626;DHT22;56847;51.984;5.088;2023-11-19T09:54:23;15.60;76.00
69626;DHT22;56847;51.984;5.088;2023-11-19T09:56:50;15.50;75.70
69626;DHT22;56847;51.984;5.088;2023-11-19T09:59:17;15.60;75.80
69626;DHT22;56847;51.984;5.088;2023-11-19T10:01:45;15.70;76.10
69626;DHT22;56847;51.984;5.088;2023-11-19T10:04:15;15.70;75.60
69626;DHT22;56847;51.984;5.088;2023-11-19T10:06:43;15.70;75.20
69626;DHT22;56847;51.984;5.088;2023-11-19T10:09:12;15.70;75.10
69626;DHT22;56847;51.984;5.088;2023-11-19T10:11:39;15.70;75.30
69626;DHT22;56847;51.984;5.088;2023-11-19T10:14:06;15.60;75.50
69626;DHT22;56847;51.984;5.088;2023-11-19T10:16:34;15.60;75.00
69626;DHT22;56847;51.984;5.088;2023-11-19T10:19:01;15.60;75.30
69626;DHT22;56847;51.984;5.088;2023-11-19T10:21:29;15.70;75.20
69626;DHT22;56847;51.984;5.088;2023-11-19T10:23:58;15.70;75.10
69626;DHT22;56847;51.984;5.088;2023-11-19T10:26:27;15.70;74.80
69626;DHT22;56847;51.984;5.088;2023-11-19T10:28:56;15.70;75.10
69626;DHT22;56847;51.984;5.088;2023-11-19T10:31:22;15.70;74.80
69626;DHT22;56847;51.984;5.088;2023-11-19T10:33:53;15.80;75.40
69626;DHT22;56847;51.984;5.088;2023-11-19T10:36:20;16.00;74.70
69626;DHT22;56847;51.984;5.088;2023-11-19T10:38:54;16.00;74.50
69626;DHT22;56847;51.984;5.088;2023-11-19T10:41:39;16.00;74.10
69626;DHT22;56847;51.984;5.088;2023-11-19T10:44:06;16.00;73.90
69626;DHT22;56847;51.984;5.088;2023-11-19T10:46:41;15.90;74.20
69626;DHT22;56847;51.984;5.088;2023-11-19T10:49:09;15.90;74.10
69626;DHT22;56847;51.984;5.088;2023-11-19T10:51:36;15.90;74.40
69626;DHT22;56847;51.984;5.088;2023-11-19T10:54:04;16.00;74.40
69626;DHT22;56847;51.984;5.088;2023-11-19T10:56:34;16.00;74.10
69626;DHT22;56847;51.984;5.088;2023-11-19T10:59:02;16.00;74.20
69626;DHT22;56847;51.984;5.088;2023-11-19T11:01:53;16.10;74.30
69626;DHT22;56847;51.984;5.088;2023-11-19T11:04:23;16.20;73.90
69626;DHT22;56847;51.984;5.088;2023-11-19T11:06:54;16.30;74.00
69626;DHT22;56847;51.984;5.088;2023-11-19T11:09:23;16.50;73.90
69626;DHT22;56847;51.984;5.088;2023-11-19T11:11:50;16.50;73.20
69626;DHT22;56847;51.984;5.088;2023-11-19T11:14:20;16.50;72.90
69626;DHT22;56847;51.984;5.088;2023-11-19T11:16:48;16.50;72.50
69626;DHT22;56847;51.984;5.088;2023-11-19T11:19:16;16.50;72.70
69626;DHT22;56847;51.984;5.088;2023-11-19T11:21:50;16.60;72.70
69626;DHT22;56847;51.984;5.088;2023-11-19T11:38:22;16.50;72.10
69626;DHT22;56847;51.984;5.088;2023-11-19T11:41:26;16.50;72.60
69626;DHT22;56847;51.984;5.088;2023-11-19T11:43:56;16.60;71.80
69626;DHT22;56847;51.984;5.088;2023-11-19T11:49:05;16.70;71.70
69626;DHT22;56847;51.984;5.088;2023-11-19T11:54:26;16.90;71.20
69626;DHT22;56847;51.984;5.088;2023-11-19T11:57:13;16.90;70.50
69626;DHT22;56847;51.984;5.088;2023-11-19T11:59:47;16.90;70.70
69626;DHT22;56847;51.984;5.088;2023-11-19T12:02:17;16.90;71.10
69626;DHT22;56847;51.984;5.088;2023-11-19T12:04:52;17.00;70.60
69626;DHT22;56847;51.984;5.088;2023-11-19T12:07:21;16.90;70.00
69626;DHT22;56847;51.984;5.088;2023-11-19T12:09:53;16.80;70.70
69626;DHT22;56847;51.984;5.088;2023-11-19T12:12:31;16.80;70.50
69626;DHT22;56847;51.984;5.088;2023-11-19T12:15:07;16.70;70.70
69626;DHT22;56847;51.984;5.088;2023-11-19T12:17:41;16.60;71.00
69626;DHT22;56847;51.984;5.088;2023-11-19T12:20:11;16.50;71.10
69626;DHT22;56847;51.984;5.088;2023-11-19T12:22:40;16.50;71.50
69626;DHT22;56847;51.984;5.088;2023-11-19T12:25:09;16.60;71.60
69626;DHT22;56847;51.984;5.088;2023-11-19T12:27:41;16.60;71.40
69626;DHT22;56847;51.984;5.088;2023-11-19T12:30:08;16.60;70.90
69626;DHT22;56847;51.984;5.088;2023-11-19T12:32:42;16.60;71.00
69626;DHT22;56847;51.984;5.088;2023-11-19T12:35:10;16.70;71.20
69626;DHT22;56847;51.984;5.088;2023-11-19T12:37:45;16.70;71.20
69626;DHT22;56847;51.984;5.088;2023-11-19T12:42:47;16.70;71.00
69626;DHT22;56847;51.984;5.088;2023-11-19T12:45:14;16.80;70.80
69626;DHT22;56847;51.984;5.088;2023-11-19T12:47:46;16.90;70.90
69626;DHT22;56847;51.984;5.088;2023-11-19T12:50:17;16.90;70.20
69626;DHT22;56847;51.984;5.088;2023-11-19T12:52:58;16.90;70.00
69626;DHT22;56847;51.984;5.088;2023-11-19T12:57:56;16.70;70.30
69626;DHT22;56847;51.984;5.088;2023-11-19T13:00:27;16.70;70.10
69626;DHT22;56847;51.984;5.088;2023-11-19T13:02:56;16.60;70.20
69626;DHT22;56847;51.984;5.088;2023-11-19T13:05:33;16.50;70.20
69626;DHT22;56847;51.984;5.088;2023-11-19T13:08:02;16.50;70.40
69626;DHT22;56847;51.984;5.088;2023-11-19T13:11:04;16.40;70.50
69626;DHT22;56847;51.984;5.088;2023-11-19T13:13:33;16.30;70.80
69626;DHT22;56847;51.984;5.088;2023-11-19T13:16:06;16.20;71.30
69626;DHT22;56847;51.984;5.088;2023-11-19T13:18:33;15.80;72.60
69626;DHT22;56847;51.984;5.088;2023-11-19T13:21:03;15.50;74.10
69626;DHT22;56847;51.984;5.088;2023-11-19T13:23:31;15.20;75.80
69626;DHT22;56847;51.984;5.088;2023-11-19T13:25:58;15.10;77.30
69626;DHT22;56847;51.984;5.088;2023-11-19T13:28:25;14.90;78.20
69626;DHT22;56847;51.984;5.088;2023-11-19T13:30:53;14.80;79.00
69626;DHT22;56847;51.984;5.088;2023-11-19T13:33:20;14.80;79.50
69626;DHT22;56847;51.984;5.088;2023-11-19T13:35:47;14.70;79.90
69626;DHT22;56847;51.984;5.088;2023-11-19T13:38:14;14.70;80.30
69626;DHT22;56847;51.984;5.088;2023-11-19T13:40:41;14.70;80.70
69626;DHT22;56847;51.984;5.088;2023-11-19T13:43:08;14.70;80.90
69626;DHT22;56847;51.984;5.088;2023-11-19T13:45:35;14.80;81.10
69626;DHT22;56847;51.984;5.088;2023-11-19T13:48:02;14.80;81.20
69626;DHT22;56847;51.984;5.088;2023-11-19T13:50:29;14.90;81.20
69626;DHT22;56847;51.984;5.088;2023-11-19T13:52:56;15.00;81.40
69626;DHT22;56847;51.984;5.088;2023-11-19T13:55:23;15.10;81.60
69626;DHT22;56847;51.984;5.088;2023-11-19T13:57:50;15.20;81.30
69626;DHT22;56847;51.984;5.088;2023-11-19T14:00:17;15.40;80.80
69626;DHT22;56847;51.984;5.088;2023-11-19T14:02:46;15.50;79.90
69626;DHT22;56847;51.984;5.088;2023-11-19T14:05:16;15.50;79.30
69626;DHT22;56847;51.984;5.088;2023-11-19T14:08:04;15.50;79.00
69626;DHT22;56847;51.984;5.088;2023-11-19T14:10:49;15.50;78.40
69626;DHT22;56847;51.984;5.088;2023-11-19T14:13:16;15.50;78.70
69626;DHT22;56847;51.984;5.088;2023-11-19T14:15:43;15.50;78.60
69626;DHT22;56847;51.984;5.088;2023-11-19T14:18:14;15.50;78.30
69626;DHT22;56847;51.984;5.088;2023-11-19T14:20:40;15.40;78.20
69626;DHT22;56847;51.984;5.088;2023-11-19T14:23:07;15.40;77.90
69626;DHT22;56847;51.984;5.088;2023-11-19T14:25:36;15.30;78.20
69626;DHT22;56847;51.984;5.088;2023-11-19T14:28:03;15.30;78.50
69626;DHT22;56847;51.984;5.088;2023-11-19T14:30:32;15.30;78.50
69626;DHT22;56847;51.984;5.088;2023-11-19T14:33:01;15.20;78.30
69626;DHT22;56847;51.984;5.088;2023-11-19T14:35:28;15.20;78.20
69626;DHT22;56847;51.984;5.088;2023-11-19T14:38:00;15.20;78.30
69626;DHT22;56847;51.984;5.088;2023-11-19T14:40:26;15.20;78.40
69626;DHT22;56847;51.984;5.088;2023-11-19T14:42:56;15.10;78.40
69626;DHT22;56847;51.984;5.088;2023-11-19T14:45:23;15.10;78.50
69626;DHT22;56847;51.984;5.088;2023-11-19T14:47:50;15.10;78.40
69626;DHT22;56847;51.984;5.088;2023-11-19T14:50:20;15.20;78.10
69626;DHT22;56847;51.984;5.088;2023-11-19T14:52:47;15.20;78.10
69626;DHT22;56847;51.984;5.088;2023-11-19T14:55:14;15.30;78.30
69626;DHT22;56847;51.984;5.088;2023-11-19T14:57:41;15.30;78.20
69626;DHT22;56847;51.984;5.088;2023-11-19T15:00:23;15.30;78.00
69626;DHT22;56847;51.984;5.088;2023-11-19T15:02:52;15.30;77.60
69626;DHT22;56847;51.984;5.088;2023-11-19T15:05:19;15.30;77.40
69626;DHT22;56847;51.984;5.088;2023-11-19T15:07:46;15.40;77.70
69626;DHT22;56847;51.984;5.088;2023-11-19T15:10:15;15.40;77.60
69626;DHT22;56847;51.984;5.088;2023-11-19T15:12:43;15.40;77.20
69626;DHT22;56847;51.984;5.088;2023-11-19T15:15:10;15.40;77.20
69626;DHT22;56847;51.984;5.088;2023-11-19T15:17:40;15.40;77.10
69626;DHT22;56847;51.984;5.088;2023-11-19T15:20:08;15.40;77.30
69626;DHT22;56847;51.984;5.088;2023-11-19T15:22:35;15.40;77.10
69626;DHT22;56847;51.984;5.088;2023-11-19T15:25:02;15.40;77.20
69626;DHT22;56847;51.984;5.088;2023-11-19T15:27:29;15.30;76.90
69626;DHT22;56847;51.984;5.088;2023-11-19T15:29:56;15.30;76.80
69626;DHT22;56847;51.984;5.088;2023-11-19T15:32:23;15.30;77.10
69626;DHT22;56847;51.984;5.088;2023-11-19T15:34:50;15.30;76.80
69626;DHT22;56847;51.984;5.088;2023-11-19T15:37:17;15.30;76.90
69626;DHT22;56847;51.984;5.088;2023-11-19T15:39:44;15.30;76.70
69626;DHT22;56847;51.984;5.088;2023-11-19T15:42:11;15.20;76.50
69626;DHT22;56847;51.984;5.088;2023-11-19T15:44:38;15.30;76.80
69626;DHT22;56847;51.984;5.088;2023-11-19T15:47:06;15.20;76.80
69626;DHT22;56847;51.984;5.088;2023-11-19T15:49:33;15.20;77.00
69626;DHT22;56847;51.984;5.088;2023-11-19T15:52:00;15.20;76.90
69626;DHT22;56847;51.984;5.088;2023-11-19T15:54:27;15.10;76.80
69626;DHT22;56847;51.984;5.088;2023-11-19T15:56:54;14.90;77.20
69626;DHT22;56847;51.984;5.088;2023-11-19T15:59:21;14.80;77.90
69626;DHT22;56847;51.984;5.088;2023-11-19T16:01:48;14.70;78.20
69626;DHT22;56847;51.984;5.088;2023-11-19T16:04:15;14.70;78.60